Time;durP1;ratioP1;P1;durP2;ratioP2;P2;SDS_P1;SDS_P2;PMS_P1;PMS_P2;Temp;Humidity;BMP_temperature;BMP_pressure;BME280_temperature;BME280_humidity;BME280_pressure;Samples;Min_cycle;Max_cycle;Signal;HPM_P1;HPM_P2
2021/10/08 00:01:48;;;;;;;3.88;3.40;;;9.40;60.40;;;;;;5034642;28;20124;-52
2021/10/08 00:04:15;;;;;;;4.80;3.30;;;9.40;60.40;;;;;;5034508;28;20354;-51
2021/10/08 00:06:40;;;;;;;5.82;3.83;;;9.40;60.30;;;;;;5034318;28;20029;-51
2021/10/08 00:09:06;;;;;;;4.07;3.30;;;9.40;60.30;;;;;;5030494;28;20113;-52
2021/10/08 00:11:32;;;;;;;4.72;3.60;;;9.30;60.20;;;;;;5034318;28;20021;-53
2021/10/08 00:13:58;;;;;;;5.15;3.80;;;9.30;60.20;;;;;;5034090;28;20025;-51
2021/10/08 00:16:23;;;;;;;5.28;4.00;;;9.30;60.30;;;;;;5034183;28;20025;-52
2021/10/08 00:18:49;;;;;;;4.40;3.70;;;9.30;60.50;;;;;;5034173;28;20030;-51
2021/10/08 00:21:15;;;;;;;4.78;3.70;;;9.30;60.60;;;;;;5034050;28;20033;-51
2021/10/08 00:23:41;;;;;;;5.13;3.60;;;9.30;60.40;;;;;;5034174;28;20036;-51
2021/10/08 00:26:07;;;;;;;5.07;3.70;;;9.30;60.50;;;;;;5033749;28;20021;-51
2021/10/08 00:28:32;;;;;;;4.70;3.80;;;9.30;60.50;;;;;;5033924;28;20099;-51
2021/10/08 00:30:59;;;;;;;4.32;3.55;;;9.30;60.50;;;;;;5033922;28;20060;-52
2021/10/08 00:33:24;;;;;;;6.00;3.90;;;9.30;60.60;;;;;;5034167;28;20076;-51
2021/10/08 00:35:50;;;;;;;4.70;3.85;;;9.30;60.70;;;;;;5033786;28;20575;-51
2021/10/08 00:38:16;;;;;;;5.30;4.07;;;9.20;60.70;;;;;;5033688;28;20040;-51
2021/10/08 00:40:45;;;;;;;5.80;4.45;;;9.20;60.80;;;;;;5028004;28;20025;-51
2021/10/08 00:43:11;;;;;;;5.35;4.18;;;9.20;60.80;;;;;;5032425;28;20068;-51
2021/10/08 00:45:37;;;;;;;5.30;4.00;;;9.20;61.00;;;;;;5032247;28;20500;-51
2021/10/08 00:48:06;;;;;;;5.22;3.90;;;9.10;61.00;;;;;;5033525;28;20150;-53
2021/10/08 00:50:37;;;;;;;5.97;3.80;;;9.20;61.00;;;;;;5033442;28;20026;-51
2021/10/08 00:53:04;;;;;;;4.60;3.67;;;9.10;61.00;;;;;;5033761;28;20039;-51
2021/10/08 00:55:30;;;;;;;6.78;3.85;;;9.10;61.00;;;;;;5033418;28;20294;-51
2021/10/08 00:57:56;;;;;;;4.65;3.60;;;9.10;61.30;;;;;;5033293;28;20484;-51
2021/10/08 01:00:22;;;;;;;6.82;4.10;;;9.10;61.40;;;;;;5029270;28;20033;-51
2021/10/08 01:02:48;;;;;;;5.07;3.92;;;9.10;61.50;;;;;;5033531;28;20025;-51
2021/10/08 01:05:13;;;;;;;5.13;4.05;;;9.10;61.60;;;;;;5033317;28;20041;-51
2021/10/08 01:07:39;;;;;;;5.70;4.32;;;9.10;61.60;;;;;;5033310;28;20021;-51
2021/10/08 01:10:06;;;;;;;4.25;3.80;;;9.10;61.60;;;;;;5033615;28;20033;-51
2021/10/08 01:12:35;;;;;;;5.93;4.00;;;9.00;61.40;;;;;;5033335;28;20096;-53
2021/10/08 01:15:01;;;;;;;5.50;3.50;;;9.00;61.50;;;;;;5032762;28;20037;-51
2021/10/08 01:17:27;;;;;;;5.05;3.90;;;9.00;61.50;;;;;;5033597;28;20026;-51
2021/10/08 01:19:53;;;;;;;6.40;4.20;;;9.00;61.50;;;;;;5033269;28;20148;-51
2021/10/08 01:22:19;;;;;;;6.97;4.47;;;9.00;61.50;;;;;;5033431;28;20041;-53
2021/10/08 01:24:45;;;;;;;5.18;3.70;;;9.00;61.70;;;;;;5033012;28;20038;-53
2021/10/08 01:27:11;;;;;;;5.35;3.90;;;9.00;61.40;;;;;;5030995;28;20021;-51
2021/10/08 01:29:51;;;;;;;5.57;4.10;;;9.00;61.60;;;;;;5033112;28;20465;-51
2021/10/08 01:32:18;;;;;;;5.72;4.20;;;9.00;61.90;;;;;;5019512;28;20017;-52
2021/10/08 01:34:44;;;;;;;4.72;3.90;;;8.90;61.70;;;;;;5033041;28;20096;-51
2021/10/08 01:37:09;;;;;;;5.53;3.88;;;8.90;61.70;;;;;;5032808;28;20053;-51
2021/10/08 01:39:35;;;;;;;5.32;4.25;;;8.90;61.80;;;;;;5033005;28;20045;-53
2021/10/08 01:42:00;;;;;;;5.32;3.75;;;8.90;61.90;;;;;;5033135;28;20029;-51
2021/10/08 01:44:26;;;;;;;4.90;3.95;;;8.90;61.70;;;;;;5029307;28;20068;-52
2021/10/08 01:46:52;;;;;;;5.85;4.07;;;8.90;61.60;;;;;;5032001;28;20037;-51
2021/10/08 01:49:17;;;;;;;5.97;4.25;;;8.90;61.30;;;;;;5033083;28;20491;-51
2021/10/08 01:51:43;;;;;;;5.88;4.07;;;8.90;61.50;;;;;;5036592;28;20046;-51
2021/10/08 01:54:10;;;;;;;5.85;4.07;;;8.90;61.40;;;;;;5030021;28;20493;-51
2021/10/08 01:56:40;;;;;;;4.97;3.83;;;8.90;61.30;;;;;;5036166;28;20040;-51
2021/10/08 01:59:06;;;;;;;5.68;3.78;;;8.90;61.20;;;;;;5036752;28;20045;-52
2021/10/08 02:01:31;;;;;;;5.40;3.80;;;8.80;61.00;;;;;;5036780;28;20465;-52
2021/10/08 02:03:57;;;;;;;8.30;4.50;;;8.80;61.00;;;;;;5036010;28;20385;-53
2021/10/08 02:06:23;;;;;;;6.47;4.32;;;8.80;61.10;;;;;;5023198;28;20057;-51
2021/10/08 02:08:48;;;;;;;5.75;4.30;;;8.80;60.90;;;;;;5036647;28;20033;-52
2021/10/08 02:11:14;;;;;;;5.70;4.07;;;8.70;60.80;;;;;;5036634;28;20091;-51
2021/10/08 02:13:39;;;;;;;5.38;4.55;;;8.70;61.10;;;;;;5036748;28;20446;-53
2021/10/08 02:16:05;;;;;;;7.63;4.38;;;8.70;61.30;;;;;;5036518;28;20025;-51
2021/10/08 02:18:31;;;;;;;5.90;3.78;;;8.70;61.20;;;;;;5035772;28;20028;-52
2021/10/08 02:20:57;;;;;;;4.40;3.90;;;8.60;61.10;;;;;;5036358;28;20416;-51
2021/10/08 02:23:22;;;;;;;7.18;4.65;;;8.60;61.20;;;;;;5036306;28;20051;-51
2021/10/08 02:25:48;;;;;;;6.22;4.43;;;8.60;61.20;;;;;;5036036;28;20031;-53
2021/10/08 02:28:13;;;;;;;6.03;4.30;;;8.60;61.20;;;;;;5036067;28;20013;-51
2021/10/08 02:30:39;;;;;;;6.35;4.05;;;8.60;61.10;;;;;;5036506;28;20025;-51
2021/10/08 02:33:05;;;;;;;6.85;4.70;;;8.50;61.20;;;;;;5036100;28;20026;-51
2021/10/08 02:35:31;;;;;;;7.03;4.55;;;8.50;61.50;;;;;;5035355;28;20033;-51
2021/10/08 02:37:57;;;;;;;5.00;4.05;;;8.50;61.40;;;;;;5018211;28;20029;-51
2021/10/08 02:40:23;;;;;;;6.30;4.80;;;8.50;61.40;;;;;;5030483;28;20381;-51
2021/10/08 02:42:49;;;;;;;6.15;4.30;;;8.50;61.50;;;;;;5029699;28;20037;-51
2021/10/08 02:45:15;;;;;;;7.15;4.75;;;8.50;61.40;;;;;;5032374;28;20033;-51
2021/10/08 02:47:41;;;;;;;4.50;3.97;;;8.50;61.60;;;;;;5036042;28;20021;-51
2021/10/08 02:50:07;;;;;;;5.55;4.40;;;8.50;61.70;;;;;;5035875;28;20026;-51
2021/10/08 02:52:33;;;;;;;5.47;3.72;;;8.50;61.50;;;;;;5034336;28;20029;-51
2021/10/08 02:54:59;;;;;;;6.68;4.45;;;8.50;61.70;;;;;;5035438;28;20369;-51
2021/10/08 02:57:24;;;;;;;6.13;4.40;;;8.50;61.60;;;;;;5035796;28;20022;-51
2021/10/08 02:59:50;;;;;;;5.57;4.47;;;8.50;61.80;;;;;;5035518;28;20037;-52
2021/10/08 03:02:15;;;;;;;5.20;4.30;;;8.50;62.00;;;;;;5034226;28;20101;-51
2021/10/08 03:04:42;;;;;;;6.05;4.28;;;8.50;61.90;;;;;;5035697;28;20030;-51
2021/10/08 03:07:08;;;;;;;7.10;4.68;;;8.40;61.60;;;;;;5035861;28;20025;-51
2021/10/08 03:09:34;;;;;;;5.93;4.20;;;8.40;61.60;;;;;;5025264;28;20037;-53
2021/10/08 03:12:00;;;;;;;7.65;4.30;;;8.40;61.60;;;;;;5034698;28;20022;-54
2021/10/08 03:14:25;;;;;;;6.22;4.13;;;8.40;61.30;;;;;;5035570;28;20109;-51
2021/10/08 03:16:51;;;;;;;6.88;4.55;;;8.40;61.30;;;;;;5035242;28;20032;-51
2021/10/08 03:19:17;;;;;;;5.63;4.07;;;8.30;61.20;;;;;;5035225;28;20132;-51
2021/10/08 03:21:42;;;;;;;5.28;4.15;;;8.30;61.00;;;;;;5035332;28;20060;-54
2021/10/08 03:24:08;;;;;;;6.22;4.43;;;8.30;61.20;;;;;;5034836;28;20049;-51
2021/10/08 03:26:34;;;;;;;7.00;4.75;;;8.30;61.30;;;;;;5034836;28;20025;-51
2021/10/08 03:28:59;;;;;;;6.57;4.43;;;8.20;61.00;;;;;;5035485;28;20112;-51
2021/10/08 03:31:25;;;;;;;6.35;4.75;;;8.30;61.30;;;;;;5035199;28;20030;-51
2021/10/08 03:33:51;;;;;;;7.30;4.40;;;8.20;61.20;;;;;;5035269;28;20520;-51
2021/10/08 03:36:29;;;;;;;7.57;4.43;;;8.20;61.10;;;;;;5006648;28;20405;-51
2021/10/08 03:38:56;;;;;;;6.15;4.65;;;8.20;61.20;;;;;;5022303;28;20513;-52
2021/10/08 03:41:22;;;;;;;6.30;4.55;;;8.20;61.10;;;;;;5034352;28;20038;-51
2021/10/08 03:43:48;;;;;;;4.97;4.38;;;8.20;61.30;;;;;;5029341;28;20041;-51
2021/10/08 03:46:14;;;;;;;5.88;4.32;;;8.10;61.20;;;;;;5020332;28;20030;-51
2021/10/08 03:51:28;;;;;;;5.78;4.28;;;8.10;61.40;;;;;;5034135;28;20524;-51
2021/10/08 03:53:55;;;;;;;6.65;4.90;;;8.00;61.20;;;;;;5033565;28;20026;-51
2021/10/08 03:56:20;;;;;;;6.40;4.40;;;8.10;61.20;;;;;;5024737;28;20106;-51
2021/10/08 03:58:46;;;;;;;5.68;4.40;;;8.00;61.10;;;;;;5033988;28;20104;-54
2021/10/08 04:01:12;;;;;;;5.40;4.30;;;8.00;61.10;;;;;;5030393;28;20025;-51
2021/10/08 04:03:37;;;;;;;5.10;4.18;;;8.00;61.00;;;;;;5034441;28;20457;-51
2021/10/08 04:06:03;;;;;;;6.78;4.72;;;8.00;61.10;;;;;;5034681;28;20049;-51
2021/10/08 04:08:29;;;;;;;4.55;4.00;;;8.00;61.10;;;;;;5034406;28;20025;-51
2021/10/08 04:10:54;;;;;;;4.40;3.95;;;8.00;61.10;;;;;;5034419;28;20469;-51
2021/10/08 04:13:20;;;;;;;7.07;4.45;;;8.00;61.10;;;;;;5022462;28;20555;-51
2021/10/08 04:15:46;;;;;;;6.60;4.43;;;8.00;61.00;;;;;;5033396;28;20053;-51
2021/10/08 04:18:11;;;;;;;6.82;5.15;;;8.00;61.50;;;;;;5034342;28;20021;-51
2021/10/08 04:20:38;;;;;;;6.25;4.95;;;7.90;60.80;;;;;;5033882;28;20080;-51
2021/10/08 04:23:04;;;;;;;6.82;4.75;;;8.00;61.30;;;;;;5033787;28;20447;-51
2021/10/08 04:25:30;;;;;;;5.60;4.63;;;8.00;61.20;;;;;;5033168;28;20057;-51
2021/10/08 04:27:56;;;;;;;5.80;4.70;;;8.00;61.00;;;;;;5027993;28;20159;-51
2021/10/08 04:30:21;;;;;;;7.20;5.10;;;8.00;61.00;;;;;;5033799;28;20436;-50
2021/10/08 04:32:48;;;;;;;6.53;4.57;;;8.00;61.00;;;;;;5033351;28;20025;-51
2021/10/08 04:35:14;;;;;;;5.63;4.40;;;7.90;61.10;;;;;;5032283;28;20025;-50
2021/10/08 04:37:39;;;;;;;6.30;4.75;;;7.90;61.00;;;;;;5032905;28;20025;-52
2021/10/08 04:40:06;;;;;;;5.22;4.20;;;7.90;61.00;;;;;;5033057;28;20098;-51
2021/10/08 04:42:33;;;;;;;7.18;4.72;;;8.00;61.10;;;;;;5033242;28;20032;-51
2021/10/08 04:44:59;;;;;;;5.95;4.50;;;8.00;61.30;;;;;;5030040;28;20040;-52
2021/10/08 04:47:24;;;;;;;6.78;4.65;;;8.00;61.20;;;;;;5033399;28;20473;-51
2021/10/08 04:49:50;;;;;;;6.15;4.22;;;8.00;61.10;;;;;;5033637;28;20045;-51
2021/10/08 04:52:15;;;;;;;6.38;4.90;;;8.00;61.90;;;;;;5032971;28;20026;-51
2021/10/08 04:54:41;;;;;;;5.72;4.53;;;8.00;61.10;;;;;;5033327;28;20022;-51
2021/10/08 04:57:07;;;;;;;5.88;4.53;;;8.10;61.00;;;;;;5033309;28;20049;-51
2021/10/08 04:59:33;;;;;;;5.53;3.95;;;8.10;60.90;;;;;;5030022;28;20065;-51
2021/10/08 05:01:59;;;;;;;7.05;4.15;;;8.10;60.70;;;;;;5032023;28;20025;-52
2021/10/08 05:04:25;;;;;;;6.10;4.13;;;8.10;60.60;;;;;;5031443;28;20065;-51
2021/10/08 05:06:51;;;;;;;6.72;4.55;;;8.10;60.40;;;;;;5031455;28;20079;-51
2021/10/08 05:09:16;;;;;;;5.68;4.18;;;8.20;60.40;;;;;;5032976;28;20358;-51
2021/10/08 05:11:42;;;;;;;5.75;4.13;;;8.20;60.40;;;;;;5032580;28;20472;-51
2021/10/08 05:14:10;;;;;;;5.68;4.45;;;8.20;60.40;;;;;;5033169;28;20040;-51
2021/10/08 05:16:37;;;;;;;6.93;4.47;;;8.20;60.40;;;;;;5031770;28;20398;-50
2021/10/08 05:19:03;;;;;;;6.22;4.18;;;8.20;60.50;;;;;;5021361;28;20018;-50
2021/10/08 05:21:29;;;;;;;6.82;4.60;;;8.20;60.20;;;;;;5031506;28;20045;-50
2021/10/08 05:23:54;;;;;;;7.90;4.80;;;8.20;60.30;;;;;;5032127;28;20049;-50
2021/10/08 05:26:20;;;;;;;6.20;4.38;;;8.20;60.50;;;;;;5031035;28;20025;-53
2021/10/08 05:28:46;;;;;;;11.95;5.07;;;8.20;60.20;;;;;;5036386;28;20018;-50
2021/10/08 05:31:12;;;;;;;8.32;4.53;;;8.20;60.20;;;;;;5031186;28;20028;-51
2021/10/08 05:33:37;;;;;;;6.38;4.75;;;8.30;60.10;;;;;;5032803;28;20029;-53
2021/10/08 05:36:03;;;;;;;6.28;4.93;;;8.20;60.30;;;;;;5035553;28;20033;-50
2021/10/08 05:38:29;;;;;;;6.00;4.22;;;8.30;60.40;;;;;;5035546;28;20030;-50
2021/10/08 05:40:55;;;;;;;5.22;3.80;;;8.30;60.40;;;;;;5036051;28;20044;-50
2021/10/08 05:43:21;;;;;;;5.18;4.28;;;8.30;60.60;;;;;;5028493;28;20061;-53
2021/10/08 05:45:47;;;;;;;5.72;4.85;;;8.30;60.20;;;;;;5022117;28;20032;-51
2021/10/08 05:48:13;;;;;;;6.43;4.45;;;8.30;60.20;;;;;;5029309;28;20116;-51
2021/10/08 05:50:38;;;;;;;7.07;4.35;;;8.30;60.20;;;;;;5035764;28;20040;-51
2021/10/08 05:53:06;;;;;;;4.43;3.78;;;8.30;60.30;;;;;;5027987;28;20393;-51
2021/10/08 05:55:32;;;;;;;7.03;4.35;;;8.30;60.30;;;;;;5034852;28;20036;-51
2021/10/08 05:57:58;;;;;;;6.38;4.88;;;8.30;60.30;;;;;;5028612;28;20501;-51
2021/10/08 06:00:24;;;;;;;5.78;4.70;;;8.40;60.30;;;;;;5023223;28;20064;-51
2021/10/08 06:02:50;;;;;;;6.13;4.40;;;8.50;60.30;;;;;;5028396;28;20036;-51
2021/10/08 06:05:16;;;;;;;5.82;4.72;;;8.50;60.40;;;;;;5031911;28;20377;-53
2021/10/08 06:07:41;;;;;;;6.50;4.50;;;8.60;60.20;;;;;;5026889;28;20366;-51
2021/10/08 06:10:08;;;;;;;5.45;4.15;;;8.60;60.00;;;;;;5023507;28;20493;-54
2021/10/08 06:12:33;;;;;;;5.45;3.92;;;8.70;60.00;;;;;;5027633;28;20367;-55
2021/10/08 06:14:59;;;;;;;5.90;4.57;;;8.70;60.00;;;;;;5020804;28;20033;-51
2021/10/08 06:17:24;;;;;;;6.57;4.53;;;8.70;59.90;;;;;;5021823;28;20033;-53
2021/10/08 06:19:51;;;;;;;5.40;4.50;;;8.70;59.80;;;;;;5026372;28;20032;-53
2021/10/08 06:22:16;;;;;;;5.47;4.20;;;8.70;59.60;;;;;;5024488;28;20060;-51
2021/10/08 06:24:42;;;;;;;6.43;4.85;;;8.80;59.80;;;;;;5019507;28;20030;-52
2021/10/08 06:27:07;;;;;;;6.03;4.30;;;8.80;59.90;;;;;;5016346;28;20262;-53
2021/10/08 06:29:33;;;;;;;7.38;4.43;;;8.80;59.80;;;;;;5021946;28;20076;-53
2021/10/08 06:31:59;;;;;;;6.38;4.22;;;8.90;59.70;;;;;;5021762;28;20022;-51
2021/10/08 06:34:25;;;;;;;5.47;3.90;;;8.90;59.70;;;;;;5019876;28;20047;-54
2021/10/08 06:36:50;;;;;;;6.05;4.22;;;8.90;59.60;;;;;;5019421;28;20717;-51
2021/10/08 06:39:16;;;;;;;6.38;4.47;;;8.90;59.70;;;;;;5023291;28;20033;-54
2021/10/08 06:41:42;;;;;;;6.78;4.25;;;8.90;59.80;;;;;;5019354;28;20030;-54
2021/10/08 06:44:07;;;;;;;6.25;4.32;;;8.90;59.70;;;;;;5015477;28;20477;-54
2021/10/08 06:46:33;;;;;;;6.90;4.70;;;8.90;59.60;;;;;;5021750;28;20030;-53
2021/10/08 06:48:59;;;;;;;5.45;4.45;;;9.00;59.60;;;;;;5017891;28;20100;-51
2021/10/08 06:51:24;;;;;;;7.10;4.47;;;9.00;59.50;;;;;;5020300;28;20108;-51
2021/10/08 06:53:50;;;;;;;6.07;4.20;;;9.10;59.60;;;;;;5017973;28;20049;-53
2021/10/08 06:56:16;;;;;;;7.40;4.72;;;9.20;59.60;;;;;;5019506;28;20064;-51
2021/10/08 06:58:41;;;;;;;5.90;4.30;;;9.20;59.50;;;;;;5015393;28;20153;-51
2021/10/08 07:01:07;;;;;;;4.68;3.85;;;9.30;59.40;;;;;;5013005;28;20034;-55
2021/10/08 07:03:33;;;;;;;6.22;3.83;;;9.40;59.10;;;;;;4999971;28;20080;-53
2021/10/08 07:05:58;;;;;;;6.55;3.97;;;9.40;58.80;;;;;;5021172;28;20040;-53
2021/10/08 07:08:24;;;;;;;6.63;3.85;;;9.50;58.60;;;;;;5016796;28;20362;-51
2021/10/08 07:10:50;;;;;;;5.70;3.90;;;9.50;58.50;;;;;;5020664;28;20037;-52
2021/10/08 07:13:15;;;;;;;7.32;4.32;;;9.60;58.50;;;;;;5015516;28;20378;-54
2021/10/08 07:15:41;;;;;;;7.03;3.90;;;9.60;59.00;;;;;;5017801;28;20030;-54
2021/10/08 07:18:10;;;;;;;5.47;4.03;;;9.70;58.50;;;;;;5008377;28;20144;-54
2021/10/08 07:20:36;;;;;;;6.15;4.00;;;9.80;58.40;;;;;;5010218;28;20395;-53
2021/10/08 07:23:02;;;;;;;6.22;3.92;;;9.80;58.30;;;;;;5013834;28;20052;-54
2021/10/08 07:25:29;;;;;;;8.60;4.28;;;9.90;58.20;;;;;;5005600;28;20124;-51
2021/10/08 07:27:55;;;;;;;7.15;3.95;;;10.00;58.20;;;;;;5015869;28;20033;-53
2021/10/08 07:30:21;;;;;;;5.82;4.15;;;10.00;58.10;;;;;;5012851;28;20079;-54
2021/10/08 07:32:47;;;;;;;6.85;4.28;;;10.00;58.00;;;;;;5013377;28;20088;-54
2021/10/08 07:35:15;;;;;;;6.18;4.03;;;10.10;57.60;;;;;;5011007;28;20041;-54
2021/10/08 07:37:42;;;;;;;6.65;3.85;;;10.20;57.30;;;;;;5010825;28;20037;-54
2021/10/08 07:40:09;;;;;;;6.03;4.10;;;10.20;57.10;;;;;;5013571;28;20057;-53
2021/10/08 07:42:36;;;;;;;5.18;4.13;;;10.30;57.10;;;;;;5013738;28;20428;-53
2021/10/08 07:45:03;;;;;;;6.82;4.00;;;10.40;57.20;;;;;;5006954;28;20033;-54
2021/10/08 07:47:29;;;;;;;5.07;4.18;;;10.50;57.00;;;;;;5005998;28;20040;-53
2021/10/08 07:49:54;;;;;;;5.88;4.05;;;10.50;56.90;;;;;;5014645;28;20021;-53
2021/10/08 07:52:20;;;;;;;5.13;4.03;;;10.60;57.60;;;;;;5020289;28;20469;-52
2021/10/08 07:54:45;;;;;;;7.72;4.07;;;10.60;56.70;;;;;;5017511;28;20039;-50
2021/10/08 07:57:11;;;;;;;5.03;3.80;;;10.60;56.90;;;;;;5010949;28;20037;-55
2021/10/08 07:59:37;;;;;;;6.03;4.15;;;10.70;56.90;;;;;;5010216;28;20033;-54
2021/10/08 08:02:03;;;;;;;6.88;4.03;;;10.70;57.10;;;;;;5012370;28;20102;-52
2021/10/08 08:04:28;;;;;;;4.55;3.45;;;10.80;57.20;;;;;;5015146;28;20049;-55
2021/10/08 08:06:54;;;;;;;5.15;3.55;;;10.80;57.00;;;;;;5016611;28;20029;-52
2021/10/08 08:09:20;;;;;;;5.95;3.55;;;10.90;56.50;;;;;;5012217;28;20041;-53
2021/10/08 08:11:45;;;;;;;8.90;3.72;;;10.90;56.70;;;;;;5013362;28;20033;-52
2021/10/08 08:14:11;;;;;;;7.13;3.60;;;10.90;56.30;;;;;;5010448;28;20481;-52
2021/10/08 08:16:37;;;;;;;8.55;3.40;;;10.90;56.30;;;;;;5008076;28;20452;-52
2021/10/08 08:19:02;;;;;;;6.25;3.67;;;10.90;56.70;;;;;;5011182;28;20025;-55
2021/10/08 08:21:28;;;;;;;5.70;3.42;;;10.80;57.00;;;;;;5010035;28;20034;-55
2021/10/08 08:23:54;;;;;;;6.97;3.50;;;10.80;57.10;;;;;;5006119;28;20033;-53
2021/10/08 08:26:19;;;;;;;8.68;3.90;;;10.80;57.30;;;;;;5013142;28;20025;-55
2021/10/08 08:28:45;;;;;;;4.32;2.80;;;10.90;57.30;;;;;;5012837;28;20465;-53
2021/10/08 08:31:12;;;;;;;6.30;3.45;;;10.90;57.10;;;;;;5013291;28;21020;-52
2021/10/08 08:33:38;;;;;;;5.82;3.70;;;11.00;57.10;;;;;;5016121;28;20026;-51
2021/10/08 08:36:04;;;;;;;4.75;3.42;;;11.00;57.10;;;;;;5010064;28;20038;-52
2021/10/08 08:38:30;;;;;;;8.60;3.72;;;11.10;57.30;;;;;;5009359;28;20030;-54
2021/10/08 08:40:58;;;;;;;5.65;3.60;;;11.20;57.20;;;;;;5015339;28;20385;-52
2021/10/08 08:43:24;;;;;;;6.13;3.20;;;11.20;56.80;;;;;;5009635;28;20044;-55
2021/10/08 08:45:49;;;;;;;7.68;3.05;;;11.30;56.60;;;;;;5016125;28;21471;-55
2021/10/08 08:48:15;;;;;;;5.47;2.92;;;11.30;56.50;;;;;;5012425;28;20092;-53
2021/10/08 08:50:46;;;;;;;7.53;3.13;;;11.40;56.30;;;;;;5013697;28;20057;-54
2021/10/08 08:53:13;;;;;;;;;;;11.40;56.00;;;;;;5010815;28;21338;-51
2021/10/08 08:55:39;;;;;;;5.47;2.80;;;11.30;56.00;;;;;;5012134;28;19921;-55
2021/10/08 08:58:05;;;;;;;4.13;2.97;;;11.40;56.10;;;;;;5012109;28;20354;-54
2021/10/08 09:00:31;;;;;;;4.50;2.78;;;11.40;56.40;;;;;;5010388;28;20037;-52
2021/10/08 09:02:59;;;;;;;5.25;2.88;;;11.50;56.20;;;;;;5009909;28;20053;-52
2021/10/08 09:05:30;;;;;;;4.32;2.90;;;11.60;56.00;;;;;;5006255;28;20048;-53
2021/10/08 09:07:58;;;;;;;4.25;2.47;;;11.70;55.80;;;;;;5012203;28;20048;-54
2021/10/08 09:10:26;;;;;;;5.25;2.90;;;11.70;55.70;;;;;;5008298;28;20061;-54
2021/10/08 09:12:56;;;;;;;4.70;2.90;;;11.80;55.60;;;;;;5011595;28;20022;-55
2021/10/08 09:15:28;;;;;;;8.50;2.67;;;11.80;55.60;;;;;;5011660;28;20034;-54
2021/10/08 09:18:12;;;;;;;4.57;2.63;;;11.90;55.60;;;;;;5006214;28;20034;-52
2021/10/08 09:20:39;;;;;;;6.85;2.70;;;12.00;55.40;;;;;;5007113;28;20096;-55
2021/10/08 09:23:06;;;;;;;5.00;2.63;;;12.10;55.00;;;;;;5008568;28;20069;-55
2021/10/08 09:25:34;;;;;;;3.92;2.88;;;12.10;55.00;;;;;;5006460;28;20064;-52
2021/10/08 09:28:02;;;;;;;5.47;2.72;;;12.10;54.80;;;;;;5010312;28;20029;-55
2021/10/08 09:30:42;;;;;;;6.97;2.88;;;12.20;54.90;;;;;;5014427;28;20033;-54
2021/10/08 09:33:16;;;;;;;5.68;2.97;;;12.20;54.40;;;;;;5012474;28;20041;-55
2021/10/08 09:35:42;;;;;;;4.47;2.60;;;12.30;54.30;;;;;;5012151;28;20124;-52
2021/10/08 09:38:11;;;;;;;5.18;2.58;;;12.30;54.30;;;;;;5006015;28;20133;-55
2021/10/08 09:40:47;;;;;;;5.47;2.53;;;12.30;54.10;;;;;;4991053;28;20077;-55
2021/10/08 09:43:14;;;;;;;3.92;2.83;;;12.40;53.60;;;;;;4988671;28;20045;-55
2021/10/08 09:45:51;;;;;;;5.97;2.88;;;12.40;53.70;;;;;;4991196;28;20092;-54
2021/10/08 09:48:43;;;;;;;6.22;2.90;;;12.50;53.80;;;;;;4987535;28;20038;-53
2021/10/08 09:51:15;;;;;;;4.78;2.40;;;12.50;53.60;;;;;;4986244;28;20834;-53
2021/10/08 09:53:46;;;;;;;6.15;3.20;;;12.60;53.50;;;;;;4989444;28;20470;-51
2021/10/08 09:56:31;;;;;;;;;;;12.70;53.70;;;;;;4985227;28;20112;-49
2021/10/08 09:58:57;;;;;;;4.45;2.08;;;12.70;53.60;;;;;;4987223;28;19953;-52
2021/10/08 10:01:25;;;;;;;4.22;2.35;;;12.70;53.80;;;;;;4988642;28;20030;-49
2021/10/08 10:03:52;;;;;;;5.57;2.42;;;12.80;53.60;;;;;;4984913;28;20029;-52
2021/10/08 10:06:19;;;;;;;7.53;2.80;;;12.90;53.30;;;;;;4981708;28;20030;-54
2021/10/08 10:08:45;;;;;;;4.95;3.00;;;12.80;52.80;;;;;;4981910;28;20520;-55
2021/10/08 10:11:11;;;;;;;4.25;2.65;;;12.80;52.50;;;;;;4987981;28;20027;-55
2021/10/08 10:13:40;;;;;;;5.55;2.97;;;12.80;52.30;;;;;;4993331;28;20050;-53
2021/10/08 10:16:06;;;;;;;6.72;3.00;;;12.80;52.10;;;;;;4992126;28;20132;-54
2021/10/08 10:18:33;;;;;;;3.88;2.80;;;12.70;52.00;;;;;;4992219;28;21162;-52
2021/10/08 10:21:01;;;;;;;6.53;2.75;;;12.70;52.20;;;;;;4994867;28;20030;-55
2021/10/08 10:23:29;;;;;;;4.07;2.50;;;12.70;52.30;;;;;;4995197;28;20394;-53
2021/10/08 10:25:56;;;;;;;5.75;2.72;;;12.60;52.20;;;;;;4991670;28;20046;-55
2021/10/08 10:28:22;;;;;;;4.95;2.45;;;12.60;52.30;;;;;;4995288;28;20037;-52
2021/10/08 10:30:50;;;;;;;7.05;2.92;;;12.60;52.50;;;;;;4993140;28;20038;-55
2021/10/08 10:33:26;;;;;;;4.85;2.65;;;12.60;52.50;;;;;;4998410;28;20113;-51
2021/10/08 10:35:57;;;;;;;4.10;2.78;;;12.60;52.50;;;;;;5002722;28;20033;-51
2021/10/08 10:38:33;;;;;;;3.45;2.60;;;12.60;52.50;;;;;;4999819;28;20038;-52
2021/10/08 10:41:08;;;;;;;4.72;2.75;;;12.60;52.50;;;;;;5017558;28;20037;-52
2021/10/08 10:43:46;;;;;;;7.70;3.00;;;12.60;52.20;;;;;;5019922;28;20529;-51
2021/10/08 10:46:40;;;;;;;5.45;2.50;;;12.70;52.00;;;;;;5016864;28;20029;-50
2021/10/08 10:51:58;;;;;;;6.47;2.75;;;12.70;52.30;;;;;;5009320;28;20095;-54
2021/10/08 10:54:41;;;;;;;5.05;2.33;;;12.70;52.10;;;;;;5011963;28;21612;-52
2021/10/08 10:57:07;;;;;;;5.18;2.58;;;12.80;51.90;;;;;;5011149;28;20110;-54
2021/10/08 10:59:42;;;;;;;6.05;2.55;;;12.80;52.00;;;;;;5010165;28;20541;-54
2021/10/08 11:02:18;;;;;;;6.90;2.78;;;12.80;51.90;;;;;;5008034;28;20037;-55
2021/10/08 11:05:19;;;;;;;3.97;2.53;;;12.80;52.10;;;;;;5014552;28;20058;-54
2021/10/08 11:08:14;;;;;;;3.88;2.50;;;12.90;52.10;;;;;;5015437;28;20049;-51
2021/10/08 11:11:06;;;;;;;5.45;2.63;;;12.90;52.10;;;;;;5015647;28;20065;-54
2021/10/08 11:13:32;;;;;;;6.07;2.90;;;12.90;52.10;;;;;;5017013;28;20033;-53
2021/10/08 11:16:08;;;;;;;6.43;3.20;;;13.00;52.10;;;;;;5016734;28;20464;-54
2021/10/08 11:18:47;;;;;;;5.28;2.92;;;13.00;52.30;;;;;;5017278;28;20390;-54
2021/10/08 11:21:38;;;;;;;4.13;2.80;;;13.10;51.90;;;;;;5010456;28;20052;-51
2021/10/08 11:24:16;;;;;;;3.35;2.45;;;13.10;51.80;;;;;;5004855;28;20076;-53
2021/10/08 11:26:49;;;;;;;5.68;2.70;;;13.20;52.10;;;;;;5017582;28;20398;-51
2021/10/08 11:29:14;;;;;;;4.45;2.65;;;13.20;52.00;;;;;;5015948;28;20033;-52
2021/10/08 11:31:40;;;;;;;7.85;3.35;;;13.30;51.30;;;;;;5019657;28;20473;-54
2021/10/08 11:34:13;;;;;;;5.28;2.60;;;13.30;51.00;;;;;;5017905;28;20029;-53
2021/10/08 11:36:39;;;;;;;6.63;3.30;;;13.30;50.60;;;;;;5017876;28;20118;-54
2021/10/08 11:39:16;;;;;;;6.07;3.53;;;13.30;50.80;;;;;;5004038;28;20572;-54
2021/10/08 11:41:56;;;;;;;4.32;2.90;;;13.30;50.80;;;;;;5007831;28;20033;-53
2021/10/08 11:44:28;;;;;;;5.55;2.92;;;13.30;50.60;;;;;;5019579;28;20047;-54
2021/10/08 11:52:03;;;;;;;6.53;3.58;;;13.40;50.90;;;;;;5015036;28;20029;-52
2021/10/08 11:54:29;;;;;;;4.28;3.10;;;13.40;50.90;;;;;;5009049;28;20124;-51
2021/10/08 11:57:02;;;;;;;7.03;3.67;;;13.40;51.00;;;;;;5016477;28;20682;-54
2021/10/08 11:59:28;;;;;;;4.85;3.42;;;13.50;51.10;;;;;;5017331;28;20057;-54
2021/10/08 12:02:14;;;;;;;4.57;3.03;;;13.50;51.10;;;;;;5008700;28;21473;-52
2021/10/08 12:04:54;;;;;;;8.05;3.65;;;13.50;50.70;;;;;;5003725;28;20037;-54
2021/10/08 12:07:20;;;;;;;5.03;3.33;;;13.50;50.90;;;;;;5006244;28;20040;-52
2021/10/08 12:09:46;;;;;;;6.85;3.50;;;13.50;50.70;;;;;;5007250;28;20026;-54
2021/10/08 12:12:14;;;;;;;6.40;3.70;;;13.60;50.00;;;;;;5010105;28;20022;-51
2021/10/08 12:14:47;;;;;;;4.80;3.40;;;13.60;49.90;;;;;;5011617;28;20033;-54
2021/10/08 12:17:14;;;;;;;5.97;3.88;;;13.60;50.00;;;;;;5011121;28;20029;-53
2021/10/08 12:19:40;;;;;;;5.90;4.32;;;13.60;49.70;;;;;;5015014;28;20037;-52
2021/10/08 12:22:06;;;;;;;5.82;3.60;;;13.60;49.40;;;;;;5010124;28;20068;-51
2021/10/08 12:24:33;;;;;;;6.10;3.72;;;13.70;49.30;;;;;;5009570;28;20045;-53
2021/10/08 12:27:01;;;;;;;6.30;4.05;;;13.70;49.60;;;;;;5009734;28;20040;-54
2021/10/08 12:29:41;;;;;;;6.50;4.32;;;13.70;50.00;;;;;;5011407;28;20040;-53
2021/10/08 12:32:15;;;;;;;7.57;5.03;;;13.70;49.60;;;;;;5014580;28;20087;-52
2021/10/08 12:34:51;;;;;;;9.20;4.68;;;13.70;49.30;;;;;;5011304;28;20584;-54
2021/10/08 12:37:24;;;;;;;7.25;4.32;;;13.60;49.40;;;;;;4996577;28;20033;-54
2021/10/08 12:40:11;;;;;;;8.95;4.13;;;13.60;49.10;;;;;;5006734;28;20055;-54
2021/10/08 12:42:49;;;;;;;6.35;4.00;;;13.60;49.40;;;;;;5010604;28;20040;-52
2021/10/08 12:45:33;;;;;;;6.03;4.20;;;13.60;49.30;;;;;;5005977;28;20717;-54
2021/10/08 12:48:00;;;;;;;5.45;4.03;;;13.60;49.60;;;;;;5011104;28;20030;-53
2021/10/08 12:50:27;;;;;;;6.32;4.10;;;13.60;50.00;;;;;;5010360;28;20022;-53
2021/10/08 12:52:55;;;;;;;7.20;3.83;;;13.60;50.20;;;;;;5008643;28;20037;-54
2021/10/08 12:55:30;;;;;;;5.68;3.97;;;13.60;50.20;;;;;;5010639;28;20095;-51
2021/10/08 12:58:43;;;;;;;7.38;3.72;;;13.60;50.00;;;;;;5012943;28;20280;-54
2021/10/08 13:01:07;;;;;;;5.47;3.72;;;13.60;49.80;;;;;;5004560;28;20390;-54
2021/10/08 13:03:36;;;;;;;;;;;13.60;49.90;;;;;;5012302;28;20041;-54
2021/10/08 13:06:27;;;;;;;7.30;3.40;;;13.50;49.60;;;;;;5013775;28;19921;-53
2021/10/08 13:09:13;;;;;;;4.60;3.25;;;13.50;49.80;;;;;;5013215;28;20032;-55